[Jeden Montag | 1800z - 2100z ] EDDL | Duesseldorf Monday

Zu Eventkalender hinzugefügt: 588 Daten

Kai Schuele

1482477
RG Düsseldorf - Event


Heute ist wieder Düsseldorf Monday!

Ab 17:00z (19:00lcl) öffnen wir heute wieder den Flughafen unserer Landeshauptstadt mit gewohnt gutem Service von Ground bis Center.
Nach dem Ansturm der letzten Wochen haben wir uns Heute gerüstet für euch und sind zum Wochenstart bereit für einen Over-loaded-Airport.
Bei leichter Bewölkung die beste Voraussetzung unsere Controller mit eurem IFR oder VFR Flug ins Schwitzen zu bringen.
Natürlich bieten wir euch wie jede Woche die Rennstrecke zum Onlinetag in Nürnberg an aber auch Berlin-Tegel öffnen heute Abend die Türen.

Also seit mit eurer Maschine ab 19:00lcl IFR oder VFR dabei und bringt leben an NRW's Größten Flughafen!

Wir freuen uns auf euch bis Später.


Düsseldorf International (EDDL) Charts

TAF: EDDL 071100Z 0712/0818 25006KT 9999 FEW035 BECMG 0719/0721 19007KT PROB30 TEMPO 0808/0811 BKN013
 

Marcel Alberti

1476180
RG Düsseldorf - Event

Es ist wieder Montag und zum Wochen start gibt es Heute besten ATC Service am Niederrhein!

Von 17:00z - 20:00z (19:00-22:00lcl) gibt es heute Abend wieder Besten ATC Service an Nordrhein-Westfalens größten Passagier Flughafen.
Wie jede Woche bieten wir euch die Rennstrecke zum Onlinetag nach Nürnberg aber auch jede andere Destination ist von Düsseldorf aus zu erreichen. Unsere Trainees freuen sich auf euch und möchten ihr können unter beweis stellen! Unterstützt sie VFR oder IFR bei bestem Wetter mit eurem Flug von oder nach Düsseldorf!

Charts für den Flughafen Düsseldorf findet ihr hier.

TAF: EDDL 140500Z 1406/1512 VRB03KT CAVOK BECMG 1406/1408 14006KT
 

Kai Schuele

1482477
RG Düsseldorf - Event



Es ist wieder Montag und zum Wochen start gibt es Heute besten ATC Service am Niederrhein!

Von 17:00z - 20:00z (19:00-22:00lcl) gibt es heute Abend wieder Besten ATC Service an Nordrhein-Westfalens größten Passagier Flughafen.
Wie jede Woche bieten wir euch die Rennstrecke zum Onlinetag nach Nürnberg aber auch jede andere Destination ist von Düsseldorf aus zu erreichen. Unsere Trainees freuen sich auf euch und möchten ihr können unter beweis stellen! Unterstützt sie VFR oder IFR bei bestem Wetter mit eurem Flug von oder nach Düsseldorf!

Charts für den Flughafen Düsseldorf findet ihr hier.

TAF: EDDL 211100Z 2112/2218 VRB03KT CAVOK TEMPO 2112/2117 01005KT BECMG 2208/2211 25005KT BECMG 2212/2215 32005KT
 

Kai Schuele

1482477
RG Düsseldorf - Event


Es ist ein Montag bei nicht bestem Wetter draußen aber dafür kommt jetzt die Lösung!

Rein ins Warme Cockpit die Sitzheizung noch eingeschaltet und auf zum Düsseldorf Monday!
Denn wir sind auch in den Kalten Monaten jeden Montag für euch da und Bieten euch heute Abend ab 17:00z (19:00lcl) wieder vollen ATC Service von Ground bis Center an Deutschlands drittgrößtem Flughafen.
Also kommt vorbei und Startet oder beendet euren IFR oder VFR Flug in Düsseldorf.

Nach dem Großen Nürnberg/Düsseldorf Shuttle am Samstag bieten wir euch natürlich auch heute wieder die geheime Rennstrecke zum Onlinetag in Nürnberg an.

Also seit dabei die Jungs und Mädels auf unseren Stationen freuen sich auf euch.

Briefing:

TAF:
  • EDDL 280500Z 2806/2912 17008KT 9999 SCT030 BECMG 2900/2903 BKN012 TEMPO 2903/2909 BKN007 PROB30 TEMPO 2906/2909 4000 RADZ BECMG 2908/2911 23007KT FEW010 BKN020

Scenery:
 
Zuletzt bearbeitet:

Maurice Szmudzinski

1332208
RG Düsseldorf - Event
Heute ist wieder Uhrzeit! :p

Ab 19lcl starten wir für euch das Scope und freuen uns auf euren Besuch.
Der nächste Düsseldorf Monday steht an und wir haben gleich zweierlei Leckerlis für euch!

Unser Düsseldorf Real Ops Event startet heute passend zum Düsseldorf Monday!
Die Nürnberger Kollegen warten ebenfalls auf euch und freuen sich auf regen Besuch.

Also nichts wie los und bis später!
 

Kai Schuele

1482477
RG Düsseldorf - Event


Der Düsseldorf Monday steht vor der Tür!
Heute öffnen wir für euch wieder unseren Ausbildungsflughafen in Düsseldorf ab 17:00z (19:00lcl).
Nach dem letzte Woche der Düsseldorf Monday von unseren C1 Controllern übernommen wurde drehen wir diese Woche den Spieß um zu denen die es noch werden wollen, weil wir haben direkt zwei CPT´s heute im Sektor.
Also nichts wie rein in den Flieger und Plant euren Flug von oder nach Düsseldorf!

Wir wünschen unseren angehenden Lotsen auf TWR und CTR viel Glück heute Abend bei ihrer Prüfung.


Nützliche Infos:

Scenery:

TAF:
  • EDDL 121100Z 1212/1318 25006KT 9999 SCT020 BECMG 1217/1220 16005KT TEMPO 1220/1224 VRB03KT BECMG 1303/1306 14010KT BECMG 1315/1318 09005KT
 

Kai Schuele

1482477
RG Düsseldorf - Event


Hurra, Hurra der Montag der ist wieder da

Es wieder Montag und da heißt es "Auf zum Düsseldorf Monday".
Zum letzten mal dieses Jahr öffnen wir ab 17:00z (19:00lcl) für euch unseren Mayor Airport in Düsseldorf und wie immer seit ihr alle herzlich Willkommen euren Flug von oder nach Düsseldorf zu Starten.
Ihr könnt VFR das schöne Rheinland erkunden oder einen Rundflug über die Landeshauptstadt machen oder IFR eure Passagiere an ihr ziel bringen wie zum Beispiel Nürnberg die wie immer heute auch ihren Onlinetag haben.

Also seit dabei ab 17:00z (19:00lcl) wir freuen uns auf euch!

PS: Ab nächste Woche fängt unser Düsseldorf Monday auf Grund der Zeitumstellung um 18:00z (19:00lcl) an!


Nützliche Infos:

Scenery:

TAF:
  • EDDL 190500Z 1906/2012 19005KT 9999 FEW010 SCT030 PROB40 TEMPO 1906/1910 4500 BR BKN008 BECMG 1919/1922 15012KT TEMPO 2006/2012 16015G25KT
 

Kai Schuele

1482477
RG Düsseldorf - Event


Heute wieder für euch ab 18:00z(19:00lcl), der Düsseldorf Monday!

Wie jede Woche öffnen wir auch heute wieder, unseren Mayor Airport im Westen Deutschlands für euch.
Wir bieten euch heute guten ATC Service vom Delivery bis Center und freuen uns auf euren Flug. Dabei könnt ihr VFR oder IFR euren Flug planen und durchführen.
Natürlich bieten wir euch auch wieder das inoffizielle Montags Shuttle zu den Kollegen nach Nürnberg(EDDN), aber auch der Flughafen Budapest(LHBP) hat heute sein Wöchentliches Event und freut sich über viele Flieger von oder nach Düsseldorf.

Wir freuen uns auf euren besuch in NRW´s Landeshauptstadt!

Nützliche Infos:

Scenery:

TAF:
  • EDDL 261100Z 2612/2718 21015G25KT 9999 SCT030 BECMG 2616/2618 18011KT PROB30 TEMPO 2705/2711 SHRA BKN015CB BECMG 2709/2712 20015G25KT BECMG 2716/2718 17012KT
 
Zuletzt bearbeitet:

Kai Schuele

1482477
RG Düsseldorf - Event
WOW! Was für eine Show Heute!

Liebe Piloten ihr wart heute Großartig, ihr habt den Flughafen Düsseldorf richtig zum beben gebracht.
Wir bedanken uns herzlich bei jedem Piloten der heute von oder nach Düsseldorf gekommen ist und vielleicht auch während des Absturzes vom Audio-Klienten etwas warten mussten. Das bitten wir auch noch mal zu entschuldigen aber euer verhalten zu dem Zeitpunkt war Großartig.

Wir freuen uns auf nächste Woche wenn es wieder heißt "Auf zum Düsseldorf Monday" bis dahin Happy Landings!
 

Kai Schuele

1482477
RG Düsseldorf - Event


Heute öffnen wir wieder unseren Flughafen Düsseldorf (EDDL) ab 18:00z (19:00lcl) für euch!

Die Woche hat Heute gestarten und zu einem guten Wochenstart gehört unser Düsseldorf Monday.
Ab 18:00z (19:00lcl) bieten wir euch wieder besten ATC Service von Delivery bis Center und freuen uns auf eure Flüge egal ob IFR oder VFR.

Natürlich bieten wir euch auch wieder das inoffizielle Montags Shuttle zu den Kollegen nach Nürnberg(EDDN), aber auch der Flughafen Budapest(LHBP) hat heute sein Wöchentliches Event und freut sich über viele Flieger von oder nach Düsseldorf.

Wir freuen uns auf euren besuch in NRW´s Landeshauptstadt!

Nützliche Infos:

Scenery:
TAF:
  • EDDL 021100Z 0212/0318 21020G30KT 9999 SCT030 TEMPO 0216/0218 27020G35KT 4000 SHRA BKN014CB BECMG 0217/0220 22010KT BECMG 0309/0312 22015G25KT BECMG 0316/0318 22010KT
 

Kai Schuele

1482477
RG Düsseldorf - Event


Heute ist wieder Düsseldorf Monday!

Ab 18:00z (19:00lcl) öffnen wir heute wieder den Flughafen unserer Landeshauptstadt mit gewohnt gutem Service von Delivery bis Center.
Nach dem Ansturm der letzten Wochen haben wir uns Heute gerüstet für euch und sind zum Wochenstart bereit für einen Over-loaded-Airport.
Bei noch leichter Bewölkung die beste Voraussetzung unsere Controller mit eurem IFR oder VFR Flug ins Schwitzen zu bringen.
Natürlich bieten wir euch wie jede Woche die Rennstrecke zum Onlinetag in Budapest (LHBP) an aber auch viele andere Flughäfen öffnen heute Abend ihr Türen für euch.

Also seit mit eurer Maschine ab 19:00lcl IFR oder VFR dabei und bringt leben an NRW's Größten Flughafen!

Wir freuen uns auf euch bis Später.

Nützliche Infos:

Scenery:
TAF:
  • EDDL 091100Z 0912/1018 15005KT CAVOK TEMPO 1008/1011 16010KT
 
Zuletzt bearbeitet:

Marcel Alberti

1476180
RG Düsseldorf - Event


Heute ist wieder Düsseldorf Monday!

Wie jede Woche öffnen wir auch heute wieder, unseren Mayor Airport im Westen Deutschlands für euch.
Wir bieten euch heute guten ATC Service vom Delivery bis Center und freuen uns auf euren Flug. Dabei könnt ihr VFR oder IFR euren Flug planen und durchführen.
Natürlich bieten wir euch wie jede Woche die Rennstrecke zum Onlinetag in Budapest (LHBP) und Nürnberg (EDDN) an aber auch viele andere Flughäfen öffnen heute Abend ihr Türen für euch.

Also seit mit eurer Maschine ab 19:00lcl IFR oder VFR dabei und bringt leben an NRW's Größten Flughafen!

Wir freuen uns auf euch bis Später.

Nützliche Infos:

Scenery:
TAF:
  • EDDL 161100Z 1612/1718 23015G25KT 9999 BKN030 BECMG 1612/1614 23013KT BECMG 1618/1621 21008KT BECMG 1703/1706 20013KT PROB30 TEMPO 1709/1712 BKN013
 

Kai Schuele

1482477
RG Düsseldorf - Event


Heute öffnen wir wieder unseren Flughafen Düsseldorf (EDDL) ab 18:00z (19:00lcl) für euch!

Die Woche hat Heute gestarten und zu einem guten Wochenstart gehört unser Düsseldorf Monday.
Ab 18:00z (19:00lcl) bieten wir euch wieder besten ATC Service von Delivery bis Center und freuen uns auf eure Flüge egal ob IFR oder VFR.

Natürlich bieten wir euch auch wieder das inoffizielle Montags Shuttle zu den Kollegen nach Budapest(LHBP) aber auch die Kollegen in Bristol und Edinburgh sind heute für euch da und freuen sich über viele Flieger von oder nach Düsseldorf.

Wir freuen uns auf euren besuch in NRW´s Landeshauptstadt!

Nützliche Infos:

Scenery:
TAF:
  • EDDL 231100Z 2312/2418 22005KT 9999 FEW030 BECMG 2316/2319 16009KT
 

Kai Schuele

1482477
RG Düsseldorf - Event



Heute ist wieder Düsseldorf Monday!

Wie jede Woche öffnen wir auch heute wieder, unseren Mayor Airport im Westen Deutschlands für euch.
Wir bieten euch heute guten ATC Service vom Boden bis zum Center und freuen uns auf euren Flug. Dabei könnt ihr VFR oder IFR euren Flug planen und durchführen.
Natürlich bieten wir euch wie jede Woche die Rennstrecke zum Onlinetag in Budapest (LHBP).

Also seit mit eurer Maschine ab 19:00lcl IFR oder VFR dabei und bringt leben an NRW's Größten Flughafen!

Wir freuen uns auf euch bis Später.

Nützliche Infos:

Scenery:
TAF:
  • EDDL 301100Z 3012/0118 19010KT 6000 BKN007 TEMPO 3012/3016 4000 BR BKN004 TEMPO 3016/0118 3000 RADZ BR BKN004 BECMG 3023/0102 27010KT BECMG 0107/0110 31005KT BECMG 0114/0117 03005KT
 
Oben